Date,TemperatureHighF,TemperatureAvgF,TemperatureLowF,DewpointHighF,DewpointAvgF,DewpointLowF,HumidityHigh,HumidityAvg,HumidityLow,PressureMaxIn,PressureMinIn,WindSpeedMaxMPH,WindSpeedAvgMPH,GustSpeedMaxMPH,PrecipitationSumIn
2013-1-1,49.0,44.8,39.9,40.9,33.6,20.4,86,65,37,30.11,29.91,17,0,17,0.16
2013-1-2,44.4,40.1,35.9,37.6,28.8,17.6,87,66,44,30.21,29.96,17,1,18,0.01
2013-1-3,42.4,35.6,29.2,30.6,24.0,17.4,82,63,40,30.27,30.17,10,0,10,0.00
2013-1-4,45.6,36.1,28.5,24.0,20.7,18.2,81,54,36,30.33,30.21,20,3,20,0.00
2013-1-5,49.8,39.7,30.1,32.5,23.3,17.8,71,53,29,30.42,30.24,15,2,15,0.00
2013-1-6,51.7,42.5,33.7,34.8,31.8,28.1,87,67,45,30.24,30.07,16,1,19,0.03
2013-1-7,47.8,39.6,29.8,28.9,26.0,22.6,84,59,41,30.47,30.19,13,2,18,0.00
2013-1-8,53.8,37.7,25.9,37.3,30.0,22.3,87,75,49,30.49,30.37,16,1,16,0.00
2013-1-9,59.0,44.0,31.9,46.8,37.8,28.4,88,79,62,30.44,30.36,13,0,13,0.00
2013-1-10,58.5,46.5,37.5,44.3,35.4,28.4,88,68,33,30.58,30.44,5,0,5,0.00
2013-1-11,45.2,42.1,39.7,39.1,36.0,31.8,89,80,62,30.46,30.16,18,0,18,0.02
2013-1-12,70.0,52.1,40.0,57.6,46.8,37.0,90,83,64,30.18,30.09,5,0,5,0.00
2013-1-13,70.7,60.1,52.5,59.2,54.0,49.0,90,81,62,30.11,29.99,16,1,16,0.00
2013-1-14,60.3,54.8,46.9,57.4,51.3,43.5,90,88,84,30.26,30.00,21,1,21,0.83
2013-1-15,46.9,41.4,37.7,43.5,37.9,34.4,90,87,87,30.30,30.13,14,2,14,2.01
2013-1-16,46.7,41.4,37.5,42.9,38.0,34.3,89,88,86,30.16,29.96,9,0,10,0.44
2013-1-17,45.7,45.7,45.7,42.6,42.6,42.6,89,89,89,30.14,30.00,15,1,15,0.00
2013-1-18,45.7,41.5,29.3,42.6,35.0,16.7,89,79,37,30.53,30.14,22,2,22,0.01
2013-1-19,52.2,38.0,26.0,31.8,27.3,22.7,88,68,37,30.49,30.11,12,1,13,0.00
2013-1-20,56.4,42.9,31.1,37.2,28.8,20.2,87,61,32,30.11,29.99,26,2,26,0.01
2013-1-21,55.3,41.0,30.3,30.2,22.0,4.9,81,50,25,30.09,29.87,30,3,32,0.00
2013-1-22,33.2,26.1,21.3,8.4,1.4,-3.4,45,34,25,30.32,30.00,22,4,22,0.00
2013-1-23,36.9,27.3,18.3,18.2,6.5,-1.7,57,42,24,30.39,30.07,17,2,17,0.00
2013-1-24,31.7,28.0,19.7,18.1,8.2,-0.7,59,44,27,30.56,30.02,31,3,31,0.00
2013-1-25,25.8,21.7,19.1,20.6,11.9,2.7,83,67,45,30.54,30.11,17,1,17,0.00
2013-1-26,42.9,32.2,24.9,26.4,22.2,17.5,87,68,47,30.46,30.10,16,1,17,0.06
2013-1-27,35.2,30.1,24.3,26.9,21.2,17.0,80,69,61,30.63,30.46,12,0,13,0.00
2013-1-28,57.3,42.1,33.0,43.1,34.4,25.0,86,75,51,30.50,30.18,13,1,14,0.18
2013-1-29,73.0,52.2,37.3,50.3,42.1,34.1,89,71,40,30.20,30.00,19,1,20,0.00
2013-1-30,68.1,61.0,52.0,60.0,55.4,46.6,90,82,71,30.01,29.32,30,3,31,1.75
2013-1-31,53.1,40.1,30.0,46.7,24.5,16.3,84,54,37,29.96,29.35,32,6,33,0.06
2013-2-1,34.7,27.8,20.6,28.8,10.8,3.1,79,49,36,30.42,29.82,39,5,39,0.00
2013-2-2,35.7,27.7,17.6,24.5,14.2,6.5,80,58,38,30.42,30.04,17,1,17,0.00
2013-2-3,43.9,35.7,29.6,27.2,22.5,16.7,83,59,46,30.04,29.87,31,3,31,0.00
2013-2-4,40.4,32.7,26.5,26.7,18.5,11.7,82,56,44,30.16,29.97,24,2,24,0.00
2013-2-5,55.1,42.6,31.7,37.4,30.5,25.3,80,64,44,29.97,29.90,26,2,26,0.00
2013-2-6,54.4,43.3,32.5,34.4,28.7,23.2,86,59,33,30.33,29.96,14,1,14,0.00
2013-2-7,40.1,36.3,32.1,29.9,27.6,25.4,85,71,62,30.40,30.14,11,1,11,0.17
2013-2-8,54.6,39.9,33.1,40.5,31.0,23.4,87,72,46,30.14,29.84,33,4,33,0.39
2013-2-9,49.6,38.3,29.2,25.9,19.2,12.6,79,48,24,30.39,30.05,26,3,28,0.00
2013-2-10,47.4,36.1,25.9,34.4,24.1,14.9,90,64,34,30.51,30.24,14,2,15,0.05
2013-2-11,58.1,45.8,36.9,47.9,38.1,26.0,88,77,36,30.23,29.89,26,1,26,0.09
2013-2-12,57.9,48.7,42.9,36.2,25.7,19.2,73,42,24,30.07,29.91,31,4,31,0.00
2013-2-13,47.3,42.4,35.8,39.5,36.5,30.1,90,80,64,29.95,29.64,25,1,25,0.12
2013-2-14,50.3,39.7,30.5,32.5,28.9,24.1,87,67,40,30.08,29.84,12,1,12,0.00
2013-2-15,59.4,42.5,28.7,38.3,30.6,25.3,88,66,35,30.11,29.92,23,2,23,0.00
2013-2-16,41.4,36.3,28.5,29.3,20.9,11.5,67,54,42,30.02,29.86,22,2,22,0.00
2013-2-17,28.4,27.8,27.7,13.4,13.3,12.5,54,54,52,29.94,29.93,11,0,12,0.00
2013-2-18,27.8,27.8,27.8,13.3,13.3,13.3,54,54,54,29.94,29.94,0,0,10,0.00
2013-2-19,27.8,27.8,27.8,13.3,13.3,13.3,54,54,54,29.94,29.94,0,0,10,0.00
2013-2-20,27.8,27.8,27.8,13.3,13.3,13.3,54,54,54,29.94,29.94,0,0,10,0.00
2013-2-21,27.8,27.8,27.8,13.3,13.3,13.3,54,54,54,29.94,29.94,0,0,10,0.00
2013-2-22,37.6,31.8,27.8,30.6,19.3,13.3,79,60,54,30.27,29.94,12,1,12,0.02
2013-2-23,48.2,39.8,34.4,40.2,33.3,27.6,86,78,67,30.18,29.83,10,1,10,0.01
2013-2-24,56.8,45.3,36.2,35.8,28.3,19.2,88,56,25,30.08,29.82,24,2,24,0.00
2013-2-25,40.6,34.8,29.3,26.9,22.4,19.3,77,61,45,30.25,30.08,10,1,10,0.00
2013-2-26,40.1,35.1,29.3,36.8,29.0,20.3,88,79,60,30.22,29.64,16,1,16,1.13
2013-2-27,52.4,44.1,34.8,40.5,33.5,30.3,89,68,46,29.78,29.61,20,2,21,0.00
2013-2-28,46.2,40.4,37.8,31.4,26.0,22.0,69,56,42,29.85,29.69,26,4,27,0.00
2013-3-1,41.7,38.1,32.9,28.9,25.2,20.9,76,60,49,29.94,29.83,18,2,19,0.00
2013-3-2,40.7,35.5,32.0,23.6,20.1,16.0,58,53,45,29.95,29.87,21,3,24,0.00
2013-3-3,39.4,32.3,28.3,20.8,16.3,10.2,61,51,41,30.01,29.91,27,5,27,0.00
2013-3-4,48.7,36.0,26.9,23.5,13.8,6.9,67,42,18,30.13,30.01,19,3,20,0.00
2013-3-5,47.6,39.1,32.7,35.5,29.0,22.3,86,68,44,30.10,29.65,14,2,14,0.80
2013-3-6,45.9,37.8,32.8,31.1,28.4,26.5,87,70,53,30.10,29.62,33,6,33,0.22
2013-3-7,46.2,40.2,36.1,28.9,25.9,22.6,64,57,45,30.26,30.09,24,4,24,0.00
2013-3-8,52.3,43.2,37.2,27.4,24.2,20.8,62,48,32,30.34,30.21,25,3,25,0.00
2013-3-9,59.6,44.2,31.7,35.5,28.0,23.4,78,55,28,30.38,30.25,11,1,11,0.00
2013-3-10,61.4,45.4,31.1,39.1,32.6,26.8,86,64,33,30.34,30.19,16,2,16,0.00
2013-3-11,60.1,47.9,37.7,50.0,39.1,28.3,83,72,46,30.22,29.89,19,1,19,0.00
2013-3-12,59.0,52.9,39.8,51.7,41.7,29.0,89,68,42,30.00,29.72,26,4,26,0.66
2013-3-13,47.9,40.1,32.9,32.6,25.3,15.2,83,57,35,30.18,29.97,33,4,33,0.00
2013-3-14,48.5,37.9,29.8,22.8,17.0,12.9,60,44,26,30.25,30.14,32,4,32,0.00
2013-3-15,61.8,45.4,29.1,35.1,27.4,18.6,77,51,33,30.19,29.86,19,2,19,0.00
2013-3-16,78.0,54.5,39.2,52.5,41.8,33.8,90,66,30,29.87,29.57,27,2,30,0.03
2013-3-17,49.2,42.0,36.4,45.7,37.5,32.6,88,84,78,30.23,29.83,13,2,14,0.15
2013-3-18,36.7,34.3,33.0,33.2,30.6,29.3,87,86,85,30.26,29.92,14,2,14,0.22
2013-3-19,61.0,46.3,33.8,41.3,22.9,-4.4,89,50,9,30.05,29.83,39,5,39,0.00
2013-3-20,54.4,44.5,34.3,24.4,12.9,2.9,50,29,16,30.08,29.79,25,3,26,0.00
2013-3-21,41.1,33.7,27.6,25.8,14.4,8.4,60,45,33,30.02,29.79,25,5,25,0.00
2013-3-22,50.2,35.6,24.1,25.5,14.4,8.8,70,44,21,30.09,29.96,18,3,20,0.00
2013-3-23,55.9,41.4,29.6,34.6,24.8,16.1,78,55,27,30.08,29.92,13,0,13,0.00
2013-3-24,40.6,34.5,31.9,30.1,27.6,22.0,87,77,48,29.97,29.63,13,1,13,0.10
2013-3-25,44.7,36.2,30.8,32.7,26.9,22.4,87,71,43,29.80,29.57,27,3,27,0.72
2013-3-26,46.1,40.3,34.7,29.8,25.5,22.6,74,56,42,30.13,29.79,20,4,20,0.00
2013-3-27,47.0,38.7,30.7,27.8,24.7,21.6,79,58,40,30.25,30.13,25,3,28,0.00
2013-3-28,52.7,42.0,32.8,28.3,24.6,21.3,78,52,32,30.30,30.21,23,4,24,0.00
2013-3-29,59.4,43.9,30.7,31.1,26.3,18.8,82,55,23,30.34,30.17,18,1,19,0.00
2013-3-30,61.6,46.2,32.9,38.8,31.2,25.1,89,60,25,30.27,30.08,14,1,14,0.00
2013-3-31,61.2,48.8,42.3,51.4,43.0,35.2,90,81,67,30.09,29.77,7,0,8,0.36
2013-4-1,64.3,50.7,39.6,46.1,38.4,27.5,89,66,40,30.03,29.83,24,3,25,0.00
2013-4-2,54.1,43.3,31.1,31.7,22.2,10.9,85,48,19,30.19,30.03,19,2,21,0.00
2013-4-3,56.3,43.7,30.2,27.2,19.7,9.5,82,43,16,30.36,30.19,19,2,19,0.00
2013-4-4,43.6,36.8,33.0,30.7,22.5,15.1,87,59,35,30.43,30.04,13,1,13,0.47
2013-4-5,63.3,47.6,34.1,43.4,34.5,29.4,88,65,30,30.05,29.92,16,2,16,0.38
2013-4-6,59.4,47.5,35.6,36.7,31.7,22.8,86,58,26,30.30,30.05,16,2,16,0.00
2013-4-7,69.7,55.1,38.7,43.2,38.7,32.1,82,56,35,30.26,30.05,27,2,27,0.00
2013-4-8,78.0,61.9,44.0,51.9,45.3,39.9,86,59,29,30.13,29.99,22,2,23,0.00
2013-4-9,84.0,68.2,50.4,59.5,50.1,46.3,87,57,30,30.14,30.00,20,1,20,0.00
2013-4-10,88.0,72.0,54.5,59.3,53.2,49.9,86,56,29,30.05,29.86,19,2,19,0.00
2013-4-11,80.7,70.0,56.2,58.4,55.1,52.1,87,62,39,29.91,29.71,28,2,28,0.00
2013-4-12,79.3,68.0,60.3,62.8,53.7,36.8,89,64,28,29.75,29.58,26,3,26,1.34
2013-4-13,74.3,61.4,50.6,42.9,35.8,26.7,62,40,21,29.99,29.75,21,3,22,0.00
2013-4-14,76.6,62.2,46.0,50.9,41.3,33.6,83,51,22,30.10,29.99,20,2,20,0.00
2013-4-15,65.8,58.6,53.5,53.8,51.1,44.1,87,77,47,30.25,30.03,13,1,16,0.21
2013-4-16,74.0,63.1,56.9,60.0,55.9,51.5,90,78,57,30.31,30.16,16,2,16,0.00
2013-4-17,76.7,66.9,58.3,64.4,58.4,54.5,88,75,55,30.20,30.09,7,0,7,0.00
2013-4-18,76.3,68.7,60.6,60.8,58.1,54.3,88,71,48,30.15,29.97,24,3,24,0.00
2013-4-19,73.6,66.8,53.5,64.0,58.2,39.5,85,74,58,29.97,29.63,31,4,31,0.85
2013-4-20,61.4,52.4,43.5,39.9,31.5,24.5,76,46,26,30.31,29.83,24,4,27,0.00
2013-4-21,56.8,48.3,40.0,38.4,33.6,28.3,78,58,41,30.55,30.31,16,2,16,0.00
2013-4-22,59.4,49.2,36.1,39.0,32.8,22.5,84,56,28,30.52,30.31,16,1,16,0.00
2013-4-23,65.3,55.2,47.8,49.9,43.1,36.9,81,64,50,30.34,30.10,13,2,13,0.00
2013-4-24,73.5,61.8,48.0,55.7,50.6,44.6,89,69,47,30.12,29.90,24,2,27,0.00
2013-4-25,66.8,55.0,43.1,46.4,34.0,17.1,75,48,16,30.31,30.04,24,2,26,0.00
2013-4-26,66.1,55.8,41.8,44.3,36.5,29.4,79,51,27,30.46,30.31,12,1,12,0.00
2013-4-27,67.8,58.5,50.9,51.1,45.3,39.6,76,62,41,30.37,30.26,12,0,13,0.00
2013-4-28,58.3,54.9,52.5,51.8,49.8,47.0,87,83,73,30.26,30.07,22,2,22,0.40
2013-4-29,63.8,56.6,51.1,56.2,51.4,47.7,90,83,70,30.11,29.99,10,0,10,0.16
2013-4-30,67.5,60.2,55.1,57.3,53.9,51.6,90,80,65,30.23,30.04,15,1,15,0.00
2013-5-1,70.0,60.8,54.7,54.8,50.7,44.1,89,71,42,30.36,30.23,17,1,18,0.00
2013-5-2,67.8,59.8,52.6,53.9,46.2,38.5,76,61,49,30.37,30.27,14,2,14,0.00
2013-5-3,65.3,56.1,47.5,51.8,46.9,42.0,90,72,55,30.33,30.21,18,2,20,0.00
2013-5-4,60.6,52.9,45.9,50.0,44.3,39.6,80,73,58,30.27,30.14,22,2,22,0.00
2013-5-5,57.4,52.4,46.2,50.3,43.9,35.3,85,73,63,30.17,30.04,20,2,20,0.02
2013-5-6,56.8,54.5,51.8,53.9,50.8,48.3,90,87,79,30.06,29.89,14,1,16,1.67
2013-5-7,63.2,56.0,50.6,56.5,52.6,47.5,90,88,75,29.95,29.86,27,0,27,0.78
2013-5-8,58.5,53.6,49.2,53.8,50.3,46.1,90,88,82,30.01,29.94,5,0,5,0.34
2013-5-9,78.7,62.7,48.3,61.4,52.3,45.5,90,72,39,30.06,29.97,12,0,12,0.01
2013-5-10,81.3,66.4,54.3,62.1,56.2,51.1,90,72,42,30.05,29.90,24,1,28,0.02
2013-5-11,75.4,66.0,60.8,64.2,59.6,57.5,90,81,62,29.93,29.74,23,0,23,0.35
2013-5-12,63.9,57.6,46.0,57.5,41.8,29.6,89,59,30,30.07,29.80,20,3,26,0.01
2013-5-13,62.4,51.3,40.1,40.0,35.0,26.3,87,58,29,30.21,30.06,19,1,19,0.00
2013-5-14,68.3,54.5,38.7,47.4,40.2,34.0,88,62,33,30.25,30.03,15,1,15,0.00
2013-5-15,90.2,68.8,50.6,63.5,54.3,45.4,87,63,28,30.04,29.83,17,1,19,0.00
2013-5-16,83.8,73.3,61.3,62.5,57.8,53.0,86,61,39,29.97,29.87,18,1,18,0.04
2013-5-17,80.0,69.4,60.0,66.5,60.8,56.0,90,76,46,30.10,29.97,10,0,10,0.01
2013-5-18,68.1,65.4,62.9,63.1,60.8,57.9,89,85,78,30.17,30.08,11,1,12,0.12
2013-5-19,71.9,66.5,63.3,66.8,62.8,59.8,90,88,82,30.14,30.04,11,1,11,0.49
2013-5-20,76.1,69.4,66.3,69.2,65.0,62.9,90,86,70,30.11,29.99,11,0,11,0.02
2013-5-21,83.0,72.0,64.1,70.9,65.5,61.1,90,81,58,30.03,29.89,7,0,8,0.00
2013-5-22,82.3,71.7,65.8,69.8,65.2,62.1,89,81,60,29.97,29.85,28,1,28,0.63
2013-5-23,75.3,68.2,62.5,67.1,63.0,59.1,89,84,71,29.92,29.77,21,1,21,0.17
2013-5-24,63.4,60.6,57.2,59.6,47.3,33.7,89,64,40,30.19,29.82,26,4,29,0.00
2013-5-25,70.7,61.6,57.2,40.9,34.4,25.8,45,37,22,30.27,30.14,23,3,23,0.00
2013-5-26,74.2,64.0,50.3,49.2,40.3,34.8,82,44,25,30.26,30.14,12,1,12,0.00
2013-5-27,74.2,62.3,49.6,60.8,49.7,41.6,86,65,42,30.29,30.14,9,0,9,0.00
2013-5-28,81.7,70.3,56.8,71.2,59.8,52.3,86,70,51,30.21,30.08,17,1,17,0.06
2013-5-29,84.7,74.4,62.8,68.8,62.7,59.5,90,69,45,30.18,30.10,14,1,15,0.00
2013-5-30,84.3,73.7,61.3,67.2,62.5,57.7,89,70,47,30.23,30.14,13,1,14,0.00
2013-5-31,84.2,73.7,62.0,68.3,63.1,58.6,89,71,51,30.19,30.06,16,1,17,0.00
2013-6-1,85.5,75.4,63.4,69.1,63.6,59.6,89,69,46,30.08,29.96,19,2,19,0.00
2013-6-2,77.3,71.3,67.5,68.3,64.6,61.1,89,80,71,29.98,29.89,17,1,23,1.22
2013-6-3,81.1,71.9,65.0,68.7,64.3,60.3,89,78,55,29.97,29.84,19,1,19,0.30
2013-6-4,76.8,69.0,61.1,63.8,60.1,55.8,87,74,53,30.11,29.97,12,1,14,0.00
2013-6-5,74.6,67.9,61.1,64.2,60.1,52.5,88,76,62,30.15,30.03,13,1,13,0.00
2013-6-6,67.8,64.3,61.1,63.9,60.7,57.6,90,88,79,30.03,29.82,10,0,12,2.53
2013-6-7,74.8,68.5,65.1,69.4,64.7,61.8,90,88,81,29.84,29.61,12,0,13,0.15
2013-6-8,78.9,69.3,62.0,66.7,61.7,57.9,90,78,53,30.09,29.81,10,1,11,0.10
2013-6-9,84.1,73.9,65.3,72.6,66.1,62.0,90,77,54,30.15,30.03,21,1,21,0.07
2013-6-10,80.2,71.4,67.1,70.5,66.7,62.1,89,85,67,30.07,29.83,31,1,31,1.10
2013-6-11,82.5,73.0,64.5,67.8,64.0,61.2,90,75,52,29.93,29.86,19,2,21,0.10
2013-6-12,90.3,77.3,65.6,77.7,68.3,61.6,88,75,52,29.95,29.82,14,0,14,0.00
2013-6-13,91.5,78.0,71.3,75.8,71.0,67.9,96,80,52,29.83,29.56,36,1,43,0.00
2013-6-14,78.0,70.2,63.4,63.9,59.3,54.6,90,69,54,30.01,29.75,18,8,18,0.00
2013-6-15,82.1,70.5,59.0,66.2,61.6,57.0,93,75,48,30.12,30.01,13,4,13,0.00
2013-6-16,85.0,74.4,62.6,74.5,67.4,61.1,96,80,59,30.06,29.95,14,0,15,0.05
2013-6-17,81.2,74.2,68.5,73.8,70.2,67.3,96,88,70,30.01,29.90,13,0,13,0.08
2013-6-18,76.2,71.9,66.1,73.0,69.3,64.2,95,91,82,29.94,29.79,14,0,14,0.44
2013-6-19,78.7,70.9,62.8,70.0,66.0,61.6,96,85,66,30.13,29.90,17,1,17,0.00
2013-6-20,77.3,70.4,65.3,69.9,65.9,63.8,96,87,67,30.26,30.13,12,0,12,0.00
2013-6-21,81.8,72.0,61.1,69.4,63.1,56.7,95,75,58,30.28,30.19,13,1,14,0.00
2013-6-22,84.3,70.9,61.1,72.8,66.2,59.6,96,86,60,30.26,30.11,17,1,17,0.00
2013-6-23,85.2,76.5,68.6,75.3,70.3,67.1,96,82,60,30.19,30.08,11,0,11,0.00
2013-6-24,86.3,77.0,69.0,76.9,71.3,67.5,95,83,56,30.17,30.04,10,0,10,0.00
2013-6-25,87.7,78.2,69.4,77.6,72.1,68.2,97,83,64,30.08,29.95,12,0,12,0.00
2013-6-26,88.3,74.5,68.3,77.7,69.8,66.5,96,86,59,29.98,29.85,34,0,34,0.70
2013-6-27,84.2,74.1,67.5,76.4,70.1,66.0,96,88,71,29.90,29.69,11,0,12,0.03
2013-6-28,87.4,79.4,69.5,75.3,70.8,67.3,95,76,59,29.72,29.50,18,1,18,0.00
2013-6-29,82.8,75.5,66.6,72.7,68.1,64.2,94,79,59,29.70,29.56,12,0,12,0.00
2013-6-30,84.1,74.8,67.9,76.9,70.2,66.3,96,86,68,29.84,29.69,15,1,17,0.02
2013-7-1,81.1,74.7,69.7,74.1,70.5,68.2,96,87,72,29.96,29.81,17,1,17,0.10
2013-7-2,76.1,73.4,69.7,72.6,70.8,67.8,95,92,87,30.16,29.95,16,2,17,0.96
2013-7-3,76.7,73.9,71.7,74.2,72.0,70.1,96,94,87,30.23,30.11,12,1,15,0.49
2013-7-4,83.8,76.6,71.7,75.2,72.8,70.2,96,89,69,30.25,30.16,17,2,17,0.02
2013-7-5,84.5,76.6,71.1,75.9,72.7,69.9,97,88,70,30.25,30.15,19,1,24,0.01
2013-7-6,84.8,77.3,70.8,75.0,72.0,69.5,97,85,63,30.22,30.09,14,1,16,0.00
2013-7-7,83.8,75.4,70.6,75.4,71.9,68.9,96,89,73,30.15,30.05,15,1,15,0.10
2013-7-8,85.6,76.3,68.1,74.9,70.9,67.2,97,85,61,30.16,30.07,10,0,10,0.43
2013-7-9,86.8,78.1,71.7,77.1,73.0,69.6,96,85,58,30.13,30.02,9,0,9,0.00
2013-7-10,84.2,76.6,72.5,79.1,73.6,71.2,96,91,77,30.06,29.92,14,1,14,0.11
2013-7-11,73.9,73.9,73.9,72.1,72.1,72.1,94,94,94,29.93,29.93,4,4,6,0.11
2013-7-12,73.9,73.9,73.9,72.1,72.1,72.1,94,94,94,29.93,29.93,4,4,6,0.11
2013-7-13,73.9,73.9,73.9,72.1,72.1,72.1,94,94,94,29.93,29.93,4,4,6,0.11
2013-7-14,73.9,73.9,73.9,72.1,72.1,72.1,94,94,94,29.93,29.93,4,4,6,0.11
2013-7-15,74.4,73.9,73.9,72.9,72.1,72.1,95,94,94,30.27,29.93,4,4,6,1.13
2013-7-16,92.6,79.9,70.2,79.8,73.2,69.0,97,81,53,30.27,30.17,19,1,20,0.00
2013-7-17,89.7,79.5,74.1,80.3,74.7,71.1,96,86,65,30.23,30.12,11,0,11,0.07
2013-7-18,90.1,80.9,72.7,81.9,75.7,71.5,96,85,63,30.15,30.02,5,0,7,0.00
2013-7-19,90.5,80.9,73.2,81.7,75.3,68.7,97,84,63,30.06,29.92,14,0,16,0.00
2013-7-20,91.0,80.2,74.9,79.6,74.3,71.3,94,83,61,29.96,29.86,13,0,14,0.00
2013-7-21,87.2,76.9,71.1,80.2,73.2,69.6,96,89,71,29.97,29.90,21,0,21,1.49
2013-7-22,85.9,77.6,72.7,77.1,73.5,71.5,97,88,67,29.94,29.78,17,0,17,0.00
2013-7-23,88.1,78.6,71.9,76.3,72.7,69.2,95,83,60,29.79,29.69,12,0,12,0.01
2013-7-24,86.9,77.6,70.3,75.3,70.8,68.6,96,81,57,29.89,29.72,10,0,10,0.62
2013-7-25,80.3,72.7,65.8,70.0,66.5,61.4,96,82,59,30.05,29.87,10,0,10,0.13
2013-7-26,81.0,73.5,66.9,70.8,67.2,63.2,95,81,66,30.10,30.01,11,0,11,0.00
2013-7-27,74.7,71.5,70.2,70.2,68.7,67.3,94,91,82,30.04,29.92,11,0,12,0.22
2013-7-28,83.7,74.3,67.9,73.3,69.3,66.4,96,85,61,29.99,29.89,9,0,9,0.00
2013-7-29,82.5,71.7,63.6,69.3,63.4,57.7,95,77,51,30.19,29.99,8,0,9,0.00
2013-7-30,81.3,71.7,61.4,69.6,63.9,58.3,97,78,54,30.25,30.14,8,0,9,0.00
2013-7-31,76.8,70.6,66.8,71.7,68.1,66.0,98,92,78,30.15,30.00,5,0,5,0.02
2013-8-1,85.9,73.3,66.3,79.1,69.6,65.4,98,89,68,30.00,29.83,11,0,12,0.06
2013-8-2,84.9,74.1,65.2,71.4,67.5,62.8,98,82,54,30.02,29.91,12,0,12,0.00
2013-8-3,85.5,74.2,65.7,74.2,68.4,63.9,95,83,56,30.01,29.91,11,0,12,0.00
2013-8-4,83.2,74.7,66.7,69.9,66.0,60.2,95,76,49,30.05,29.91,12,1,12,0.00
2013-8-5,77.1,70.3,61.1,68.4,63.5,59.1,94,80,61,30.11,30.00,12,1,13,0.00
2013-8-6,81.6,74.1,67.9,72.5,68.9,64.6,93,84,69,30.03,29.96,13,1,14,0.00
2013-8-7,79.8,73.5,69.6,74.5,70.8,67.7,96,91,80,30.07,30.01,12,0,12,0.10
2013-8-8,81.3,75.1,71.3,76.6,72.7,70.1,97,92,81,30.04,29.98,13,0,13,0.06
2013-8-9,88.1,78.9,71.9,79.7,74.1,71.0,97,86,66,30.00,29.92,13,1,16,0.04
2013-8-10,90.0,79.7,72.2,78.9,74.1,70.8,96,84,60,30.06,29.98,15,0,15,0.00
2013-8-11,88.2,76.8,72.3,78.1,73.4,71.1,97,90,64,30.09,30.00,14,0,17,1.17
2013-8-12,88.5,77.8,70.3,77.0,72.8,69.3,97,86,61,30.04,29.92,9,0,9,0.16
2013-8-13,81.5,74.5,70.5,76.3,71.5,66.6,96,91,78,29.93,29.78,16,0,16,0.13
2013-8-14,77.2,70.3,63.7,66.8,60.6,53.5,92,73,49,30.12,29.85,13,1,13,0.00
2013-8-15,75.8,65.9,56.3,62.8,57.3,53.6,92,75,55,30.19,30.09,12,0,12,0.00
2013-8-16,72.4,67.1,60.9,64.0,61.3,59.4,95,83,66,30.20,30.13,9,1,10,0.00
2013-8-17,69.6,63.1,57.8,63.4,60.2,56.7,96,91,72,30.24,30.18,10,0,10,0.51
2013-8-18,72.3,66.2,63.3,69.6,64.4,62.1,97,94,84,30.24,30.15,10,0,10,0.95
2013-8-19,75.6,68.5,64.5,70.7,66.5,63.3,97,93,82,30.22,30.08,9,0,9,0.20
2013-8-20,81.7,73.2,67.1,74.4,69.8,66.2,97,89,71,30.19,30.10,6,0,6,0.00
2013-8-21,80.3,74.4,68.8,75.3,71.7,67.9,97,91,79,30.21,30.08,9,0,9,0.02
2013-8-22,86.6,75.1,65.7,76.1,70.5,64.6,97,87,62,30.13,29.98,12,0,12,0.12
2013-8-23,83.4,72.6,62.7,74.6,69.1,60.7,96,89,66,30.13,29.94,19,1,19,0.00
2013-8-24,80.3,69.5,60.7,67.2,62.5,57.8,97,81,50,30.32,30.13,12,0,13,0.00
2013-8-25,79.5,68.5,59.1,67.1,62.6,58.0,97,83,54,30.41,30.28,11,0,11,0.00
2013-8-26,83.3,69.9,59.0,69.9,63.9,57.9,97,83,50,30.33,30.09,6,0,6,0.00
2013-8-27,86.7,74.7,64.8,76.4,70.2,63.6,97,87,63,30.09,29.94,17,0,17,0.00
2013-8-28,81.2,75.4,70.2,77.3,73.5,69.0,97,94,87,29.99,29.83,7,0,7,0.16
2013-8-29,85.0,76.7,70.7,77.6,72.8,69.2,97,88,72,30.02,29.83,15,0,15,0.01
2013-8-30,83.7,74.8,68.9,74.7,70.7,68.0,97,88,69,30.06,29.91,10,0,10,0.00
2013-8-31,85.0,74.0,68.3,77.0,70.6,67.1,97,90,70,29.94,29.80,18,1,18,2.01
2013-9-1,84.3,74.1,66.3,77.4,71.4,65.4,97,92,74,29.88,29.77,9,0,10,0.04
2013-9-2,86.4,76.4,68.1,76.7,71.7,67.2,97,87,62,29.87,29.76,11,0,13,0.01
2013-9-3,86.8,77.3,69.5,75.3,70.6,65.0,97,81,58,29.93,29.78,10,0,11,0.00
2013-9-4,81.1,71.5,60.3,69.9,64.7,58.8,96,80,59,30.10,29.96,10,1,10,0.00
2013-9-5,85.5,72.0,60.6,67.8,63.8,59.2,96,77,51,30.12,30.03,12,1,12,0.00
2013-9-6,75.8,67.5,60.5,63.4,60.8,57.6,97,81,56,30.23,30.11,10,0,10,0.00
2013-9-7,78.2,67.5,57.8,69.9,63.2,56.7,97,87,67,30.15,29.97,10,0,10,0.00
2013-9-8,87.1,72.6,62.4,74.2,67.8,61.2,96,86,58,29.99,29.90,10,0,10,0.00
2013-9-9,78.8,71.6,67.2,71.0,67.8,64.7,97,88,71,30.17,29.99,10,0,10,0.00
2013-9-10,88.8,75.8,66.7,79.0,71.6,65.5,97,88,65,30.22,30.12,8,0,9,0.00
2013-9-11,88.8,77.4,69.1,77.3,72.7,68.2,97,86,60,30.18,30.04,10,0,10,0.00
2013-9-12,88.0,77.3,69.3,76.9,72.0,66.7,97,85,61,30.04,29.78,11,0,11,0.00
2013-9-13,79.5,71.5,61.0,68.6,59.9,50.8,92,69,44,29.93,29.76,16,2,16,0.00
2013-9-14,72.0,61.6,52.2,58.9,53.2,49.1,95,76,50,30.16,29.93,12,0,14,0.00
2013-9-15,76.2,63.1,52.2,64.9,57.4,50.8,96,83,60,30.26,30.11,12,0,12,0.00
2013-9-16,75.8,66.5,59.6,68.8,62.2,57.3,97,87,71,30.24,30.09,9,0,10,0.01
2013-9-17,70.5,60.9,52.6,60.2,55.1,51.1,95,82,58,30.38,30.23,13,0,15,0.00
2013-9-18,69.2,58.7,49.8,60.3,53.9,47.3,95,85,67,30.35,30.19,6,0,7,0.00
2013-9-19,72.6,65.2,60.5,66.4,61.4,57.9,93,88,76,30.21,30.08,6,0,6,0.00
2013-9-20,68.9,65.9,62.7,67.4,64.0,60.7,96,94,89,30.09,29.96,5,0,5,0.25
2013-9-21,69.3,65.8,60.8,68.0,64.6,59.8,97,96,95,29.96,29.70,19,1,19,1.06
2013-9-22,75.0,64.2,55.4,64.1,58.6,54.6,97,83,54,29.94,29.75,13,0,14,0.01
2013-9-23,69.2,60.8,57.1,60.4,55.7,51.1,96,84,68,30.09,29.94,7,0,10,0.00
2013-9-24,72.8,62.4,55.2,64.3,57.7,52.6,96,85,69,30.12,29.94,8,0,8,0.00
2013-9-25,70.3,62.7,56.2,64.4,59.8,55.1,97,90,79,29.98,29.89,6,0,6,0.03
2013-9-26,73.9,64.8,58.1,64.2,59.4,52.9,97,84,53,30.07,29.91,9,0,10,0.00
2013-9-27,74.5,62.4,52.9,61.3,56.8,51.8,97,83,56,30.22,30.07,12,0,12,0.00
2013-9-28,69.5,61.5,54.1,60.6,56.6,52.4,95,85,65,30.29,30.21,15,0,15,0.00
2013-9-29,71.3,60.0,52.2,60.7,54.5,51.1,96,84,59,30.22,30.06,10,0,11,0.00
2013-9-30,73.0,61.8,53.1,63.2,57.1,52.0,97,86,61,30.11,29.99,7,0,7,0.00
2013-10-1,79.2,66.2,56.4,67.4,61.0,55.3,97,85,57,30.12,30.02,10,0,10,0.00
2013-10-2,81.6,67.5,56.6,68.7,62.1,55.5,97,84,57,30.14,30.04,10,0,11,0.00
2013-10-3,82.8,68.9,60.8,70.2,64.2,59.7,96,86,58,30.13,30.04,9,0,9,0.00
2013-10-4,86.0,73.7,66.5,70.3,67.8,65.1,96,83,54,30.12,30.03,11,0,13,0.00
2013-10-5,85.8,72.1,62.5,72.8,66.7,61.6,97,85,57,30.11,30.01,12,0,12,0.00
2013-10-6,81.3,70.7,62.3,70.4,65.4,61.1,97,85,62,30.04,29.89,20,1,20,0.00
2013-10-7,72.2,66.6,54.7,69.7,62.1,49.3,96,86,65,30.07,29.77,22,2,22,1.19
2013-10-8,67.9,58.0,48.8,54.1,49.8,46.6,93,75,52,30.27,30.05,19,1,19,0.00
2013-10-9,64.6,56.9,50.9,55.7,50.6,47.8,93,80,63,30.28,30.18,10,0,10,0.00
2013-10-10,68.0,58.7,51.9,61.2,54.9,49.1,95,88,77,30.18,29.98,18,3,19,0.21
2013-10-11,75.5,65.3,59.5,66.0,59.4,55.8,89,82,66,29.99,29.91,15,0,15,0.00
2013-10-12,66.8,63.2,61.1,64.4,60.8,57.9,96,92,84,30.13,29.98,9,0,9,0.14
2013-10-13,65.3,62.3,59.4,62.8,60.6,58.1,97,94,89,30.27,30.12,10,0,11,0.17
2013-10-14,69.3,61.2,55.9,62.9,58.6,54.5,96,91,76,30.30,30.19,13,0,13,0.08
2013-10-15,70.8,59.6,52.0,59.9,55.5,50.9,97,87,59,30.25,30.09,10,0,10,0.00
2013-10-16,69.7,62.8,55.9,63.7,59.0,53.6,96,88,74,30.11,29.94,8,0,8,0.00
2013-10-17,67.4,63.5,60.0,63.7,61.1,55.3,97,92,80,29.95,29.79,17,0,19,0.01
2013-10-18,68.1,57.7,50.2,56.0,48.9,44.8,94,74,51,30.06,29.89,18,1,18,0.00
2013-10-19,60.1,54.1,49.1,57.7,52.1,47.6,96,93,84,30.00,29.81,5,0,5,0.00
2013-10-20,61.7,51.9,43.6,50.1,42.5,37.1,95,72,44,30.13,29.94,13,1,14,0.00
2013-10-21,65.0,52.6,40.6,54.1,47.4,39.3,96,83,63,30.18,29.99,15,1,16,0.00
2013-10-22,69.4,57.5,50.5,55.0,51.3,49.1,96,82,53,29.99,29.81,22,1,22,0.00
2013-10-23,59.6,51.5,43.1,52.8,44.2,33.3,96,77,54,30.01,29.71,22,3,24,0.46
2013-10-24,52.7,45.1,38.1,39.7,35.0,32.1,90,68,52,30.21,30.01,20,3,22,0.00
2013-10-25,53.2,42.5,35.3,36.2,32.8,29.0,93,70,46,30.39,30.21,19,2,19,0.00
2013-10-26,56.1,44.2,30.4,38.9,33.2,28.4,97,68,42,30.38,30.04,16,1,18,0.00
2013-10-27,65.3,52.6,43.1,50.2,43.2,37.0,94,72,44,30.13,30.03,13,0,14,0.00
2013-10-28,67.3,53.1,41.6,54.6,48.0,40.3,95,84,56,30.27,30.13,7,0,7,0.00
2013-10-29,67.6,59.1,53.3,55.9,53.1,49.3,95,81,61,30.37,30.26,9,0,9,0.00
2013-10-30,71.5,60.3,54.0,63.5,56.3,50.7,95,87,72,30.30,30.14,6,0,6,0.06
2013-10-31,69.5,63.1,56.8,60.9,58.4,55.7,97,85,69,30.18,29.81,21,1,21,0.00
2013-11-1,74.0,67.4,56.2,65.0,61.2,54.6,95,81,63,29.81,29.61,24,2,24,0.06
2013-11-2,68.3,56.9,47.9,54.5,44.9,36.4,96,68,37,29.97,29.68,17,2,18,0.00
2013-11-3,60.7,50.6,40.5,44.2,39.3,36.5,88,66,44,30.42,29.97,16,1,17,0.00
2013-11-4,51.4,42.9,35.3,37.2,33.2,29.4,94,70,47,30.61,30.42,10,0,10,0.00
2013-11-5,53.5,45.9,36.6,44.5,36.3,28.3,83,69,55,30.64,30.49,6,0,6,0.00
2013-11-6,65.4,53.9,47.6,55.4,49.2,43.4,95,85,65,30.49,30.12,10,0,10,0.00
2013-11-7,50.3,49.2,43.2,48.8,46.0,29.8,95,89,58,30.16,30.12,20,0,20,0.01
2013-11-8,52.8,43.6,35.4,35.2,31.5,27.8,92,64,41,30.36,30.16,18,2,19,0.00
2013-11-9,54.7,43.5,31.1,36.7,32.4,28.6,93,68,41,30.40,30.15,19,1,19,0.00
2013-11-10,67.3,51.8,38.2,45.8,35.2,27.3,93,58,27,30.30,30.06,26,3,29,0.00
2013-11-11,58.4,46.5,35.3,38.7,33.4,28.3,91,63,34,30.36,30.11,14,1,14,0.00
2013-11-12,53.7,43.0,30.0,41.4,30.9,16.8,82,62,47,30.48,30.02,21,2,21,0.00
2013-11-13,46.6,36.0,28.1,25.5,20.9,16.6,73,55,34,30.58,30.47,16,2,16,0.00
2013-11-14,62.2,43.3,28.4,33.0,25.9,18.6,84,55,21,30.48,30.31,11,0,11,0.00
2013-11-15,60.4,46.6,31.9,48.9,37.3,29.0,95,73,36,30.34,30.20,12,0,12,0.17
2013-11-16,55.1,52.2,49.2,53.4,50.7,47.8,96,95,91,30.31,30.24,5,0,5,0.10
2013-11-17,61.2,56.3,53.8,60.1,55.4,52.7,97,97,96,30.24,29.81,12,0,13,0.08
2013-11-18,67.3,59.3,48.4,60.2,42.9,29.5,96,58,31,30.00,29.78,26,4,28,0.13
2013-11-19,52.7,45.4,38.9,35.6,30.8,28.1,77,57,42,30.36,29.99,19,1,19,0.00
2013-11-20,47.9,40.9,34.0,33.3,29.3,26.3,75,64,49,30.53,30.36,13,1,14,0.00
2013-11-21,49.8,45.4,40.0,42.9,38.2,29.6,81,76,66,30.57,30.43,4,0,4,0.00
2013-11-22,69.0,57.2,47.9,59.1,51.0,42.1,91,80,68,30.43,30.07,16,1,16,0.00
2013-11-23,57.5,49.8,35.1,54.7,35.8,17.9,92,60,34,30.25,30.07,28,4,29,0.00
2013-11-24,35.4,29.6,24.4,19.6,11.5,6.7,60,47,33,30.59,30.25,27,3,28,0.00
2013-11-25,36.6,30.2,22.3,20.3,13.9,9.9,69,51,40,30.60,30.41,13,0,13,0.00
2013-11-26,42.5,35.6,31.8,41.4,32.9,15.5,96,90,43,30.41,29.65,15,0,15,2.64
2013-11-27,44.1,36.9,27.9,43.0,30.6,15.5,96,78,60,30.19,29.56,26,5,32,0.09
2013-11-28,41.7,32.4,25.3,27.8,21.4,15.0,86,65,42,30.50,30.19,20,1,22,0.00
2013-11-29,47.0,35.6,26.3,31.7,26.8,23.8,94,72,44,30.71,30.49,7,0,9,0.00
2013-11-30,41.2,33.1,27.0,29.1,25.0,21.2,92,72,56,30.72,30.41,9,0,9,0.00
2013-12-1,54.1,36.8,25.2,37.2,29.9,23.4,94,78,41,30.41,30.06,7,0,7,0.00
2013-12-2,51.4,41.1,30.5,42.4,36.1,29.0,95,83,63,30.06,29.87,4,0,4,0.00
2013-12-3,57.2,45.9,36.5,48.9,41.7,34.7,95,86,62,30.01,29.90,11,0,12,0.00
2013-12-4,60.2,52.4,43.6,54.7,49.2,41.7,95,89,76,30.09,29.99,12,1,13,0.00
2013-12-5,66.4,60.4,54.0,62.0,58.0,52.6,96,92,82,30.10,29.97,13,0,14,0.03
2013-12-6,74.0,66.2,48.3,65.3,61.7,46.6,96,86,71,30.07,29.87,23,2,24,0.88
2013-12-7,50.2,45.0,39.4,46.6,39.1,31.1,95,80,65,30.52,30.05,13,2,15,0.21
2013-12-8,39.5,32.2,29.5,31.8,28.9,26.9,94,88,72,30.53,30.32,12,1,12,0.51
2013-12-9,44.0,36.6,31.8,41.3,35.1,30.3,96,94,89,30.32,30.08,7,0,7,0.58
2013-12-10,44.8,38.3,32.9,42.5,33.0,21.7,96,82,62,30.31,29.98,23,2,25,0.59
2013-12-11,49.2,37.7,28.8,31.0,24.3,19.9,75,59,39,30.45,30.28,17,1,17,0.00
2013-12-12,40.1,34.3,28.0,23.5,17.5,10.4,70,51,34,30.45,30.31,19,2,19,0.00
2013-12-13,49.9,37.5,27.5,33.2,23.7,14.9,80,59,35,30.39,30.26,13,0,13,0.00
2013-12-14,39.9,36.8,35.0,35.0,32.5,28.4,95,85,67,30.32,29.80,11,0,11,0.44
2013-12-15,48.1,39.9,35.5,38.5,32.6,26.9,95,76,58,30.06,29.74,25,3,27,0.01
2013-12-16,48.4,40.2,34.4,37.0,31.9,27.3,91,73,59,30.17,30.05,22,1,22,0.00
2013-12-17,58.8,41.8,31.4,42.9,34.5,26.5,95,78,44,30.14,29.90,25,2,28,0.05
2013-12-18,46.6,37.5,30.5,28.4,24.8,21.4,88,61,38,30.29,30.05,24,3,24,0.01
2013-12-19,63.4,44.3,29.0,41.8,31.4,26.4,90,65,30,30.28,30.17,13,0,13,0.00
2013-12-20,60.9,48.7,36.5,43.3,38.2,29.2,88,69,46,30.20,30.07,17,0,18,0.00
2013-12-21,65.9,54.5,42.5,61.7,50.0,40.3,95,85,71,30.11,29.96,23,1,23,0.00
2013-12-22,70.0,62.7,56.0,65.7,59.5,54.3,97,90,71,30.06,29.93,21,2,21,0.56
2013-12-23,62.4,52.7,37.7,61.4,48.5,29.0,97,86,68,30.22,29.95,19,2,21,1.07
2013-12-24,42.9,34.0,24.2,30.2,22.6,10.8,78,63,46,30.52,30.21,23,4,23,0.00
2013-12-25,35.4,27.3,19.8,21.0,15.5,10.4,81,61,47,30.59,30.42,13,1,13,0.00
2013-12-26,50.8,34.3,23.8,32.0,24.5,19.8,90,70,40,30.43,30.28,14,1,21,0.00
2013-12-27,52.1,37.0,27.5,31.0,26.2,21.3,89,68,34,30.50,30.38,10,0,10,0.00
2013-12-28,56.7,40.5,27.2,40.2,31.5,24.9,93,73,35,30.43,30.20,8,0,8,0.09
2013-12-29,53.4,44.8,40.2,47.9,41.2,38.8,96,88,71,30.20,29.70,24,2,24,1.11
2013-12-30,47.2,42.1,36.9,41.2,35.2,29.5,93,77,64,30.17,29.92,20,2,23,0.00
2013-12-31,48.7,38.6,30.3,32.7,26.7,20.2,91,65,37,30.39,30.15,26,2,27,0.00
2014-1-1,47.9,35.5,27.2,33.6,27.8,24.4,93,75,40,30.42,30.15,17,1,17,0.00
2014-1-2,39.4,34.2,28.9,35.8,31.2,24.5,94,89,71,30.15,29.66,20,1,32,0.22